createdAt,value
2016-04-24T00:00:21.171Z,0
2016-04-24T00:01:21.158Z,0
2016-04-24T00:02:21.161Z,0
2016-04-24T00:03:21.101Z,0
2016-04-24T00:04:23.197Z,0
2016-04-24T00:05:21.059Z,0
2016-04-24T00:06:21.062Z,0
2016-04-24T00:07:21.736Z,0
2016-04-24T00:08:21.037Z,0
2016-04-24T00:09:21.024Z,0
2016-04-24T00:10:21.010Z,0
2016-04-24T00:11:20.998Z,0
2016-04-24T00:12:20.985Z,0
2016-04-24T00:13:20.971Z,0
2016-04-24T00:14:20.959Z,0
2016-04-24T00:15:20.946Z,0
2016-04-24T00:16:20.918Z,0
2016-04-24T00:17:20.904Z,0
2016-04-24T00:18:20.891Z,0
2016-04-24T00:19:20.863Z,0
2016-04-24T00:20:20.849Z,0
2016-04-24T00:21:20.821Z,0
2016-04-24T00:22:21.684Z,0
2016-04-24T00:23:20.795Z,0
2016-04-24T00:24:20.799Z,0
2016-04-24T00:25:20.785Z,0
2016-04-24T00:26:20.772Z,0
2016-04-24T00:27:20.729Z,0
2016-04-24T00:28:20.715Z,0
2016-04-24T00:29:20.702Z,0
2016-04-24T00:30:20.706Z,0
2016-04-24T00:31:21.833Z,0
2016-04-24T00:32:20.695Z,0
2016-04-24T00:33:20.650Z,0
2016-04-24T00:34:20.653Z,0
2016-04-24T00:35:20.609Z,0
2016-04-24T00:36:21.096Z,0
2016-04-24T00:37:20.770Z,0
2016-04-24T00:38:20.570Z,0
2016-04-24T00:39:20.572Z,0
2016-04-24T00:40:20.561Z,0
2016-04-24T00:41:20.516Z,0
2016-04-24T00:42:20.502Z,0
2016-04-24T00:43:20.506Z,0
2016-04-24T00:44:20.336Z,0
2016-04-24T00:45:20.448Z,0
2016-04-24T00:46:24.577Z,0
2016-04-24T00:47:20.469Z,0
2016-04-24T00:48:20.425Z,0
2016-04-24T00:49:20.396Z,0
2016-04-24T00:50:20.399Z,0
2016-04-24T00:51:21.199Z,0
2016-04-24T00:52:20.873Z,0
2016-04-24T00:53:20.251Z,0
2016-04-24T00:54:20.520Z,0
2016-04-24T00:55:20.318Z,0
2016-04-24T00:56:20.307Z,0
2016-04-24T00:57:20.153Z,0
2016-04-24T00:58:20.280Z,0
2016-04-24T00:59:20.252Z,0
2016-04-24T01:00:20.223Z,0
2016-04-24T01:01:20.209Z,0
2016-04-24T01:02:20.198Z,0
2016-04-24T01:03:20.200Z,0
2016-04-24T01:04:20.156Z,0
2016-04-24T01:05:20.159Z,0
2016-04-24T01:06:20.145Z,0
2016-04-24T01:07:20.133Z,0
2016-04-24T01:08:20.103Z,0
2016-04-24T01:09:20.106Z,0
2016-04-24T01:10:20.063Z,0
2016-04-24T01:11:20.643Z,0
2016-04-24T01:12:20.037Z,0
2016-04-24T01:13:20.039Z,0
2016-04-24T01:14:20.010Z,0
2016-04-24T01:15:19.998Z,0
2016-04-24T01:16:19.985Z,0
2016-04-24T01:17:19.956Z,0
2016-04-24T01:18:19.944Z,0
2016-04-24T01:19:19.930Z,0
2016-04-24T01:20:19.933Z,0
2016-04-24T01:21:19.905Z,0
2016-04-24T01:22:20.657Z,0
2016-04-24T01:23:19.896Z,0
2016-04-24T01:24:19.852Z,0
2016-04-24T01:25:19.839Z,0
2016-04-24T01:26:19.811Z,0
2016-04-24T01:27:19.797Z,0
2016-04-24T01:28:19.785Z,0
2016-04-24T01:29:19.772Z,0
2016-04-24T01:30:19.775Z,0
2016-04-24T01:31:19.747Z,0
2016-04-24T01:32:19.749Z,0
2016-04-24T01:33:19.705Z,0
2016-04-24T01:34:19.691Z,0
2016-04-24T01:35:19.694Z,0
2016-04-24T01:36:19.681Z,0
2016-04-24T01:37:19.903Z,0
2016-04-24T01:38:20.733Z,0
2016-04-24T01:39:19.627Z,0
2016-04-24T01:40:19.598Z,0
2016-04-24T01:41:19.601Z,0
2016-04-24T01:42:19.588Z,0
2016-04-24T01:43:19.559Z,0
2016-04-24T01:44:19.547Z,0
2016-04-24T01:45:19.534Z,0
2016-04-24T01:46:19.505Z,0
2016-04-24T01:47:19.524Z,0
2016-04-24T01:48:19.479Z,0
2016-04-24T01:49:19.513Z,0
2016-04-24T01:50:19.437Z,0
2016-04-24T01:51:19.284Z,0
2016-04-24T01:52:19.521Z,0
2016-04-24T01:53:19.446Z,0
2016-04-24T01:54:19.420Z,0
2016-04-24T01:55:19.431Z,0
2016-04-24T01:56:19.474Z,0
2016-04-24T01:57:19.502Z,0
2016-04-24T01:58:19.530Z,0
2016-04-24T01:59:19.535Z,0
2016-04-24T02:00:19.506Z,0
2016-04-24T02:01:19.523Z,0
2016-04-24T02:02:19.509Z,0
2016-04-24T02:03:19.526Z,0
2016-04-24T02:04:19.504Z,0
2016-04-24T02:05:19.498Z,0
2016-04-24T02:06:19.505Z,0
2016-04-24T02:07:19.450Z,0
2016-04-24T02:08:20.177Z,0
2016-04-24T02:09:19.447Z,0
2016-04-24T02:10:19.437Z,0
2016-04-24T02:11:19.426Z,0
2016-04-24T02:12:19.415Z,0
2016-04-24T02:13:19.388Z,0
2016-04-24T02:14:19.377Z,0
2016-04-24T02:15:19.380Z,0
2016-04-24T02:16:19.336Z,0
2016-04-24T02:17:19.339Z,0
2016-04-24T02:18:19.326Z,0
2016-04-24T02:19:19.313Z,0
2016-04-24T02:20:19.301Z,0
2016-04-24T02:21:19.273Z,0
2016-04-24T02:22:20.494Z,0
2016-04-24T02:23:19.247Z,0
2016-04-24T02:24:19.219Z,0
2016-04-24T02:25:19.222Z,0
2016-04-24T02:26:19.177Z,0
2016-04-24T02:27:19.196Z,0
2016-04-24T02:28:19.168Z,0
2016-04-24T02:29:19.138Z,0
2016-04-24T02:30:19.110Z,0
2016-04-24T02:31:19.129Z,0
2016-04-24T02:32:19.100Z,0
2016-04-24T02:33:19.103Z,0
2016-04-24T02:34:19.059Z,0
2016-04-24T02:35:19.045Z,0
2016-04-24T02:36:19.032Z,0
2016-04-24T02:37:19.364Z,0
2016-04-24T02:38:18.944Z,0
2016-04-24T02:39:18.979Z,0
2016-04-24T02:40:22.778Z,0
2016-04-24T02:41:18.968Z,0
2016-04-24T02:42:18.923Z,0
2016-04-24T02:43:18.926Z,0
2016-04-24T02:44:18.897Z,0
2016-04-24T02:45:18.885Z,0
2016-04-24T02:46:18.872Z,0
2016-04-24T02:47:18.875Z,0
2016-04-24T02:48:18.847Z,0
2016-04-24T02:49:18.817Z,0
2016-04-24T02:50:18.805Z,0
2016-04-24T02:51:18.791Z,0
2016-04-24T02:52:18.794Z,0
2016-04-24T02:53:19.594Z,0
2016-04-24T02:54:18.737Z,0
2016-04-24T02:55:18.725Z,0
2016-04-24T02:56:18.711Z,0
2016-04-24T02:57:18.698Z,0
2016-04-24T02:58:18.685Z,0
2016-04-24T02:59:18.673Z,0
2016-04-24T03:00:18.644Z,0
2016-04-24T03:01:18.646Z,0
2016-04-24T03:02:18.618Z,0
2016-04-24T03:03:18.589Z,0
2016-04-24T03:04:18.576Z,0
2016-04-24T03:05:18.564Z,0
2016-04-24T03:06:18.566Z,0
2016-04-24T03:07:19.210Z,0
2016-04-24T03:08:18.665Z,0
2016-04-24T03:09:18.543Z,0
2016-04-24T03:10:18.499Z,0
2016-04-24T03:11:18.470Z,0
2016-04-24T03:12:18.442Z,0
2016-04-24T03:13:18.445Z,0
2016-04-24T03:14:18.416Z,0
2016-04-24T03:15:18.419Z,0
2016-04-24T03:16:18.422Z,0
2016-04-24T03:17:18.378Z,0
2016-04-24T03:18:18.364Z,0
2016-04-24T03:19:18.336Z,0
2016-04-24T03:20:17.573Z,0
2016-04-24T03:21:18.325Z,0
2016-04-24T03:22:18.313Z,0
2016-04-24T03:23:19.393Z,0
2016-04-24T03:24:18.271Z,0
2016-04-24T03:25:18.258Z,0
2016-04-24T03:26:18.230Z,0
2016-04-24T03:27:18.201Z,0
2016-04-24T03:28:18.204Z,0
2016-04-24T03:29:18.190Z,0
2016-04-24T03:30:18.177Z,0
2016-04-24T03:31:18.149Z,0
2016-04-24T03:32:18.137Z,0
2016-04-24T03:33:18.123Z,0
2016-04-24T03:34:18.110Z,0
2016-04-24T03:35:18.098Z,0
2016-04-24T03:36:17.912Z,0
2016-04-24T03:37:18.071Z,0
2016-04-24T03:38:18.356Z,0
2016-04-24T03:39:18.030Z,0
2016-04-24T03:40:18.017Z,0
2016-04-24T03:41:18.004Z,0
2016-04-24T03:42:17.975Z,0
2016-04-24T03:43:17.947Z,0
2016-04-24T03:44:17.934Z,0
2016-04-24T03:45:17.937Z,0
2016-04-24T03:46:17.925Z,0
2016-04-24T03:47:17.895Z,0
2016-04-24T03:48:17.897Z,0
2016-04-24T03:49:17.886Z,0
2016-04-24T03:50:17.841Z,0
2016-04-24T03:51:17.828Z,0
2016-04-24T03:52:17.830Z,0
2016-04-24T03:53:17.693Z,0
2016-04-24T03:54:17.773Z,0
2016-04-24T03:55:17.792Z,0
2016-04-24T03:56:17.748Z,0
2016-04-24T03:57:17.735Z,0
2016-04-24T03:58:17.721Z,0
2016-04-24T03:59:17.725Z,0
2016-04-24T04:00:17.695Z,0
2016-04-24T04:01:17.683Z,0
2016-04-24T04:02:17.654Z,0
2016-04-24T04:03:17.657Z,0
2016-04-24T04:04:17.659Z,0
2016-04-24T04:05:17.616Z,0
2016-04-24T04:06:17.587Z,0
2016-04-24T04:07:17.559Z,0
2016-04-24T04:08:17.576Z,0
2016-04-24T04:09:17.564Z,0
2016-04-24T04:10:17.535Z,0
2016-04-24T04:11:17.507Z,0
2016-04-24T04:12:17.478Z,0
2016-04-24T04:13:17.465Z,0
2016-04-24T04:14:17.467Z,0
2016-04-24T04:15:17.456Z,0
2016-04-24T04:16:17.426Z,0
2016-04-24T04:17:17.414Z,0
2016-04-24T04:18:17.385Z,0
2016-04-24T04:19:17.388Z,0
2016-04-24T04:20:17.375Z,0
2016-04-24T04:21:17.347Z,0
2016-04-24T04:22:17.333Z,0
2016-04-24T04:23:17.336Z,0
2016-04-24T04:24:17.307Z,0
2016-04-24T04:25:17.294Z,0
2016-04-24T04:26:17.282Z,0
2016-04-24T04:27:17.253Z,0
2016-04-24T04:28:17.240Z,0
2016-04-24T04:29:17.211Z,0
2016-04-24T04:30:17.199Z,0
2016-04-24T04:31:17.295Z,0
2016-04-24T04:32:17.219Z,0
2016-04-24T04:33:17.207Z,0
2016-04-24T04:34:17.146Z,0
2016-04-24T04:35:17.134Z,0
2016-04-24T04:36:17.105Z,0
2016-04-24T04:37:17.076Z,0
2016-04-24T04:38:17.767Z,0
2016-04-24T04:39:17.067Z,0
2016-04-24T04:40:17.038Z,0
2016-04-24T04:41:17.040Z,0
2016-04-24T04:42:17.028Z,0
2016-04-24T04:43:16.998Z,0
2016-04-24T04:44:16.970Z,0
2016-04-24T04:45:16.989Z,0
2016-04-24T04:46:16.961Z,0
2016-04-24T04:47:16.931Z,0
2016-04-24T04:48:16.919Z,0
2016-04-24T04:49:16.906Z,0
2016-04-24T04:50:16.878Z,0
2016-04-24T04:51:16.864Z,0
2016-04-24T04:52:16.836Z,0
2016-04-24T04:53:17.838Z,0
2016-04-24T04:54:16.825Z,0
2016-04-24T04:55:16.813Z,0
2016-04-24T04:56:16.487Z,0
2016-04-24T04:57:16.786Z,0
2016-04-24T04:58:16.789Z,0
2016-04-24T04:59:16.777Z,0
2016-04-24T05:00:16.591Z,0
2016-04-24T05:01:16.704Z,0
2016-04-24T05:02:16.690Z,0
2016-04-24T05:03:16.678Z,0
2016-04-24T05:04:16.649Z,0
2016-04-24T05:05:16.637Z,0
2016-04-24T05:06:16.623Z,0
2016-04-24T05:07:16.610Z,0
2016-04-24T05:08:17.097Z,0
2016-04-24T05:09:16.304Z,0
2016-04-24T05:10:16.571Z,0
2016-04-24T05:11:16.559Z,0
2016-04-24T05:12:16.545Z,0
2016-04-24T05:13:16.518Z,0
2016-04-24T05:14:16.504Z,0
2016-04-24T05:15:16.507Z,0
2016-04-24T05:16:16.462Z,0
2016-04-24T05:17:16.465Z,0
2016-04-24T05:18:16.436Z,0
2016-04-24T05:19:16.440Z,0
2016-04-24T05:20:16.395Z,0
2016-04-24T05:21:16.413Z,0
2016-04-24T05:22:16.353Z,0
2016-04-24T05:23:16.139Z,0
2016-04-24T05:24:16.828Z,0
2016-04-24T05:25:16.330Z,0
2016-04-24T05:26:16.286Z,0
2016-04-24T05:27:16.288Z,0
2016-04-24T05:28:16.277Z,0
2016-04-24T05:29:16.280Z,0
2016-04-24T05:30:16.266Z,0
2016-04-24T05:31:16.206Z,0
2016-04-24T05:32:16.209Z,0
2016-04-24T05:33:16.196Z,0
2016-04-24T05:34:16.168Z,0
2016-04-24T05:35:16.170Z,0
2016-04-24T05:36:16.157Z,0
2016-04-24T05:37:16.128Z,0
2016-04-24T05:38:16.054Z,0
2016-04-24T05:39:16.384Z,0
2016-04-24T05:40:16.262Z,0
2016-04-24T05:41:16.061Z,0
2016-04-24T05:42:16.049Z,0
2016-04-24T05:43:16.035Z,0
2016-04-24T05:44:16.023Z,0
2016-04-24T05:45:15.978Z,0
2016-04-24T05:46:15.997Z,0
2016-04-24T05:47:15.967Z,0
2016-04-24T05:48:15.956Z,0
2016-04-24T05:49:15.958Z,0
2016-04-24T05:50:15.929Z,5
2016-04-24T05:51:15.916Z,5
2016-04-24T05:52:15.747Z,5
2016-04-24T05:53:16.281Z,5
2016-04-24T05:54:16.628Z,5
2016-04-24T05:55:15.833Z,5
2016-04-24T05:56:15.836Z,5
2016-04-24T05:57:15.807Z,5
2016-04-24T05:58:15.794Z,5
2016-04-24T05:59:15.766Z,10
2016-04-24T06:00:15.769Z,10
2016-04-24T06:01:15.755Z,10
2016-04-24T06:02:15.743Z,10
2016-04-24T06:03:15.730Z,10
2016-04-24T06:04:15.701Z,10
2016-04-24T06:05:15.688Z,10
2016-04-24T06:06:15.676Z,15
2016-04-24T06:07:15.662Z,15
2016-04-24T06:08:15.415Z,15
2016-04-24T06:09:15.605Z,15
2016-04-24T06:10:15.607Z,15
2016-04-24T06:11:15.579Z,15
2016-04-24T06:12:15.567Z,15
2016-04-24T06:13:15.570Z,20
2016-04-24T06:14:15.525Z,20
2016-04-24T06:15:15.543Z,20
2016-04-24T06:16:15.342Z,20
2016-04-24T06:17:15.486Z,20
2016-04-24T06:18:15.473Z,20
2016-04-24T06:19:15.476Z,20
2016-04-24T06:20:15.447Z,20
2016-04-24T06:21:15.434Z,25
2016-04-24T06:22:15.269Z,25
2016-04-24T06:23:15.383Z,25
2016-04-24T06:24:16.089Z,25
2016-04-24T06:25:15.186Z,25
2016-04-24T06:26:15.344Z,25
2016-04-24T06:27:15.331Z,25
2016-04-24T06:28:15.319Z,25
2016-04-24T06:29:15.275Z,30
2016-04-24T06:30:15.261Z,30
2016-04-24T06:31:15.248Z,30
2016-04-24T06:32:15.251Z,30
2016-04-24T06:33:15.239Z,30
2016-04-24T06:34:15.210Z,30
2016-04-24T06:35:15.197Z,30
2016-04-24T06:36:15.183Z,30
2016-04-24T06:37:15.155Z,30
2016-04-24T06:38:15.080Z,35
2016-04-24T06:39:16.192Z,35
2016-04-24T06:40:15.101Z,35
2016-04-24T06:41:15.119Z,35
2016-04-24T06:42:15.090Z,35
2016-04-24T06:43:15.047Z,35
2016-04-24T06:44:15.079Z,35
2016-04-24T06:45:15.036Z,35
2016-04-24T06:46:15.007Z,35
2016-04-24T06:47:14.995Z,35
2016-04-24T06:48:14.981Z,40
2016-04-24T06:49:14.985Z,40
2016-04-24T06:50:14.971Z,40
2016-04-24T06:51:14.927Z,40
2016-04-24T06:52:14.929Z,40
2016-04-24T06:53:14.621Z,40
2016-04-24T06:54:14.670Z,40
2016-04-24T06:55:14.876Z,40
2016-04-24T06:56:14.847Z,40
2016-04-24T06:57:14.865Z,40
2016-04-24T06:58:14.836Z,40
2016-04-24T06:59:14.653Z,40
2016-04-24T07:00:14.811Z,45
2016-04-24T07:01:14.798Z,45
2016-04-24T07:02:14.753Z,45
2016-04-24T07:03:14.741Z,45
2016-04-24T07:04:14.727Z,45
2016-04-24T07:05:14.714Z,45
2016-04-24T07:06:14.717Z,45
2016-04-24T07:07:14.689Z,45
2016-04-24T07:08:14.910Z,45
2016-04-24T07:09:15.038Z,45
2016-04-24T07:10:14.650Z,45
2016-04-24T07:11:14.622Z,45
2016-04-24T07:12:14.608Z,50
2016-04-24T07:13:14.643Z,50
2016-04-24T07:14:14.568Z,50
2016-04-24T07:15:14.554Z,50
2016-04-24T07:16:14.526Z,50
2016-04-24T07:17:14.544Z,50
2016-04-24T07:18:14.499Z,50
2016-04-24T07:19:14.502Z,50
2016-04-24T07:20:14.473Z,50
2016-04-24T07:21:14.462Z,50
2016-04-24T07:22:14.433Z,50
2016-04-24T07:23:14.435Z,50
2016-04-24T07:24:14.844Z,50
2016-04-24T07:25:14.409Z,55
2016-04-24T07:26:14.411Z,55
2016-04-24T07:27:14.368Z,55
2016-04-24T07:28:14.402Z,55
2016-04-24T07:29:14.342Z,55
2016-04-24T07:30:14.328Z,55
2016-04-24T07:31:14.317Z,55
2016-04-24T07:32:14.303Z,55
2016-04-24T07:33:14.275Z,55
2016-04-24T07:34:14.262Z,55
2016-04-24T07:35:14.233Z,55
2016-04-24T07:36:14.236Z,55
2016-04-24T07:37:14.207Z,55
2016-04-24T07:38:14.194Z,55
2016-04-24T07:39:14.291Z,60
2016-04-24T07:40:14.169Z,60
2016-04-24T07:41:14.155Z,60
2016-04-24T07:42:14.127Z,60
2016-04-24T07:43:14.113Z,60
2016-04-24T07:44:14.116Z,60
2016-04-24T07:45:14.088Z,60
2016-04-24T07:46:14.075Z,60
2016-04-24T07:47:14.077Z,60
2016-04-24T07:48:14.034Z,60
2016-04-24T07:49:14.004Z,60
2016-04-24T07:50:14.008Z,60
2016-04-24T07:51:13.995Z,60
2016-04-24T07:52:13.966Z,60
2016-04-24T07:53:13.968Z,65
2016-04-24T07:54:14.346Z,65
2016-04-24T07:55:13.927Z,65
2016-04-24T07:56:13.915Z,65
2016-04-24T07:57:13.918Z,65
2016-04-24T07:58:13.889Z,65
2016-04-24T07:59:13.875Z,65
2016-04-24T08:00:13.847Z,65
2016-04-24T08:01:13.834Z,65
2016-04-24T08:02:13.836Z,65
2016-04-24T08:03:13.840Z,65
2016-04-24T08:04:13.811Z,65
2016-04-24T08:05:13.783Z,65
2016-04-24T08:06:13.785Z,70
2016-04-24T08:07:13.756Z,70
2016-04-24T08:08:13.728Z,70
2016-04-24T08:09:14.184Z,70
2016-04-24T08:10:13.702Z,70
2016-04-24T08:11:13.689Z,70
2016-04-24T08:12:13.676Z,70
2016-04-24T08:13:13.679Z,70
2016-04-24T08:14:13.650Z,70
2016-04-24T08:15:13.622Z,70
2016-04-24T08:16:13.624Z,70
2016-04-24T08:17:13.627Z,70
2016-04-24T08:18:13.582Z,70
2016-04-24T08:19:13.555Z,70
2016-04-24T08:20:13.541Z,75
2016-04-24T08:21:13.529Z,75
2016-04-24T08:22:15.344Z,75
2016-04-24T08:23:13.487Z,75
2016-04-24T08:24:13.364Z,75
2016-04-24T08:25:13.477Z,75
2016-04-24T08:26:13.495Z,75
2016-04-24T08:27:13.435Z,75
2016-04-24T08:28:13.453Z,75
2016-04-24T08:29:13.394Z,75
2016-04-24T08:30:13.397Z,75
2016-04-24T08:31:13.462Z,75
2016-04-24T08:32:13.387Z,75
2016-04-24T08:33:13.436Z,75
2016-04-24T08:34:13.329Z,75
2016-04-24T08:35:13.316Z,80
2016-04-24T08:36:13.303Z,80
2016-04-24T08:37:13.322Z,80
2016-04-24T08:38:13.277Z,80
2016-04-24T08:39:14.624Z,80
2016-04-24T08:40:13.252Z,80
2016-04-24T08:41:13.239Z,80
2016-04-24T08:42:13.210Z,80
2016-04-24T08:43:13.197Z,80
2016-04-24T08:44:13.185Z,80
2016-04-24T08:45:13.155Z,80
2016-04-24T08:46:13.143Z,80
2016-04-24T08:47:13.130Z,85
2016-04-24T08:48:13.116Z,85
2016-04-24T08:49:13.104Z,85
2016-04-24T08:50:13.121Z,85
2016-04-24T08:51:13.063Z,85
2016-04-24T08:52:12.300Z,85
2016-04-24T08:53:13.068Z,85
2016-04-24T08:54:13.851Z,85
2016-04-24T08:55:13.042Z,90
2016-04-24T08:56:13.013Z,90
2016-04-24T08:57:13.000Z,90
2016-04-24T08:58:12.972Z,90
2016-04-24T08:59:12.959Z,90
2016-04-24T09:00:12.978Z,90
2016-04-24T09:01:12.933Z,95
2016-04-24T09:02:12.936Z,95
2016-04-24T09:03:12.923Z,95
2016-04-24T09:04:12.894Z,95
2016-04-24T09:05:12.897Z,95
2016-04-24T09:06:12.884Z,95
2016-04-24T09:07:12.871Z,95
2016-04-24T09:08:12.827Z,95
2016-04-24T09:09:13.814Z,95
2016-04-24T09:10:12.817Z,95
2016-04-24T09:11:12.883Z,95
2016-04-24T09:12:12.775Z,95
2016-04-24T09:13:12.403Z,95
2016-04-24T09:14:12.749Z,100
2016-04-24T09:15:12.752Z,100
2016-04-24T09:16:12.739Z,100
2016-04-24T09:17:12.710Z,100
2016-04-24T09:18:12.541Z,100
2016-04-24T09:19:12.669Z,105
2016-04-24T09:20:12.657Z,105
2016-04-24T09:21:12.674Z,105
2016-04-24T09:22:12.646Z,100
2016-04-24T09:23:12.617Z,100
2016-04-24T09:24:13.276Z,105
2016-04-24T09:25:12.998Z,105
2016-04-24T09:26:12.594Z,105
2016-04-24T09:27:12.596Z,105
2016-04-24T09:28:12.568Z,105
2016-04-24T09:29:12.556Z,110
2016-04-24T09:30:12.542Z,110
2016-04-24T09:31:12.514Z,105
2016-04-24T09:32:17.297Z,105
2016-04-24T09:33:12.488Z,105
2016-04-24T09:34:12.209Z,105
2016-04-24T09:35:12.462Z,110
2016-04-24T09:36:12.434Z,110
2016-04-24T09:37:12.452Z,110
2016-04-24T09:38:12.439Z,110
2016-04-24T09:39:12.300Z,110
2016-04-24T09:40:12.101Z,110
2016-04-24T09:41:12.228Z,115
2016-04-24T09:42:12.278Z,115
2016-04-24T09:43:12.375Z,115
2016-04-24T09:44:12.330Z,115
2016-04-24T09:45:12.317Z,120
2016-04-24T09:46:12.320Z,120
2016-04-24T09:47:12.339Z,120
2016-04-24T09:48:12.310Z,120
2016-04-24T09:49:12.281Z,125
2016-04-24T09:50:12.268Z,125
2016-04-24T09:51:12.255Z,125
2016-04-24T09:52:12.242Z,130
2016-04-24T09:53:12.230Z,130
2016-04-24T09:54:12.107Z,130
2016-04-24T09:55:12.188Z,135
2016-04-24T09:56:12.190Z,135
2016-04-24T09:57:12.162Z,140
2016-04-24T09:58:12.165Z,140
2016-04-24T09:59:12.136Z,140
2016-04-24T10:00:12.154Z,140
2016-04-24T10:01:12.110Z,145
2016-04-24T10:02:12.301Z,145
2016-04-24T10:03:12.084Z,150
2016-04-24T10:04:12.103Z,155
2016-04-24T10:05:12.059Z,155
2016-04-24T10:06:12.061Z,155
2016-04-24T10:07:12.439Z,155
2016-04-24T10:08:12.114Z,160
2016-04-24T10:09:12.085Z,160
2016-04-24T10:10:12.791Z,165
2016-04-24T10:11:11.981Z,170
2016-04-24T10:12:12.000Z,170
2016-04-24T10:13:11.861Z,175
2016-04-24T10:14:11.958Z,180
2016-04-24T10:15:11.961Z,185
2016-04-24T10:16:11.916Z,190
2016-04-24T10:17:11.919Z,190
2016-04-24T10:18:11.938Z,200
2016-04-24T10:19:11.893Z,195
2016-04-24T10:20:11.897Z,195
2016-04-24T10:21:11.867Z,200
2016-04-24T10:22:11.869Z,200
2016-04-24T10:23:11.826Z,210
2016-04-24T10:24:12.218Z,205
2016-04-24T10:25:12.394Z,205
2016-04-24T10:26:11.787Z,210
2016-04-24T10:27:11.790Z,210
2016-04-24T10:28:11.792Z,210
2016-04-24T10:29:11.796Z,215
2016-04-24T10:30:11.782Z,215
2016-04-24T10:31:11.738Z,215
2016-04-24T10:32:11.740Z,215
2016-04-24T10:33:11.728Z,215
2016-04-24T10:34:11.731Z,215
2016-04-24T10:35:11.718Z,215
2016-04-24T10:36:11.690Z,215
2016-04-24T10:37:11.676Z,225
2016-04-24T10:38:11.678Z,220
2016-04-24T10:39:11.494Z,220
2016-04-24T10:40:13.028Z,220
2016-04-24T10:41:11.624Z,220
2016-04-24T10:42:11.627Z,220
2016-04-24T10:43:11.614Z,220
2016-04-24T10:44:11.648Z,220
2016-04-24T10:45:11.589Z,220
2016-04-24T10:46:11.575Z,220
2016-04-24T10:47:11.561Z,215
2016-04-24T10:48:11.565Z,215
2016-04-24T10:49:11.583Z,220
2016-04-24T10:50:11.555Z,220
2016-04-24T10:51:11.542Z,220
2016-04-24T10:52:11.529Z,220
2016-04-24T10:53:11.500Z,220
2016-04-24T10:54:12.081Z,220
2016-04-24T10:55:11.130Z,225
2016-04-24T10:56:11.477Z,225
2016-04-24T10:57:11.480Z,225
2016-04-24T10:58:11.466Z,225
2016-04-24T10:59:11.461Z,230
2016-04-24T11:00:11.504Z,240
2016-04-24T11:01:11.517Z,255
2016-04-24T11:02:11.576Z,310
2016-04-24T11:03:11.605Z,1175
2016-04-24T11:04:11.628Z,2195
2016-04-24T11:05:11.630Z,2485
2016-04-24T11:06:11.648Z,2480
2016-04-24T11:07:11.634Z,2385
2016-04-24T11:08:11.668Z,2415
2016-04-24T11:09:11.965Z,2445
2016-04-24T11:10:12.036Z,2460
2016-04-24T11:11:11.668Z,2470
2016-04-24T11:12:11.662Z,2565
2016-04-24T11:13:11.545Z,2565
2016-04-24T11:14:11.677Z,2420
2016-04-24T11:15:11.682Z,2420
2016-04-24T11:16:11.686Z,2525
2016-04-24T11:17:11.675Z,2455
2016-04-24T11:18:11.696Z,2445
2016-04-24T11:19:11.700Z,2580
2016-04-24T11:20:11.703Z,2400
2016-04-24T11:21:11.643Z,2315
2016-04-24T11:22:11.365Z,2450
2016-04-24T11:23:11.649Z,2405
2016-04-24T11:24:12.543Z,2255
2016-04-24T11:25:11.577Z,2200
2016-04-24T11:26:11.643Z,2120
2016-04-24T11:27:11.647Z,2275
2016-04-24T11:28:11.664Z,2405
2016-04-24T11:29:11.637Z,2455
2016-04-24T11:30:11.656Z,2440
2016-04-24T11:31:11.658Z,2520
2016-04-24T11:32:11.676Z,705
2016-04-24T11:33:11.678Z,2355
2016-04-24T11:34:11.681Z,2210
2016-04-24T11:35:11.699Z,2165
2016-04-24T11:36:11.702Z,350
2016-04-24T11:37:11.705Z,275
2016-04-24T11:38:11.677Z,2320
2016-04-24T11:39:11.647Z,2285
2016-04-24T11:40:11.463Z,2345
2016-04-24T11:41:11.699Z,2345
2016-04-24T11:42:11.718Z,2370
2016-04-24T11:43:11.691Z,2315
2016-04-24T11:44:11.708Z,2245
2016-04-24T11:45:11.710Z,1620
2016-04-24T11:46:11.729Z,2190
2016-04-24T11:47:11.701Z,2375
2016-04-24T11:48:11.719Z,2335
2016-04-24T11:49:11.721Z,2450
2016-04-24T11:50:11.709Z,2460
2016-04-24T11:51:11.727Z,2470
2016-04-24T11:52:11.746Z,2525
2016-04-24T11:53:11.732Z,2495
2016-04-24T11:54:11.735Z,2575
2016-04-24T11:55:12.238Z,2570
2016-04-24T11:56:11.756Z,2530
2016-04-24T11:57:11.775Z,2520
2016-04-24T11:58:11.762Z,2520
2016-04-24T11:59:11.764Z,2020
2016-04-24T12:00:11.767Z,755
2016-04-24T12:01:11.769Z,2425
2016-04-24T12:02:11.772Z,2480
2016-04-24T12:03:11.775Z,2505
2016-04-24T12:04:11.809Z,2500
2016-04-24T12:05:11.811Z,2510
2016-04-24T12:06:11.814Z,2430
2016-04-24T12:07:11.802Z,2455
2016-04-24T12:08:11.819Z,2480
2016-04-24T12:09:11.822Z,2450
2016-04-24T12:10:12.450Z,2455
2016-04-24T12:11:11.827Z,2465
2016-04-24T12:12:11.846Z,2455
2016-04-24T12:13:11.864Z,2505
2016-04-24T12:14:11.851Z,2795
2016-04-24T12:15:11.869Z,2910
2016-04-24T12:16:11.888Z,2740
2016-04-24T12:17:11.860Z,2450
2016-04-24T12:18:11.893Z,2395
2016-04-24T12:19:11.896Z,2340
2016-04-24T12:20:11.898Z,2300
2016-04-24T12:21:11.917Z,2435
2016-04-24T12:22:11.904Z,2400
2016-04-24T12:23:11.922Z,2265
2016-04-24T12:24:11.926Z,2450
2016-04-24T12:25:11.928Z,2595
2016-04-24T12:26:11.931Z,2540
2016-04-24T12:27:11.965Z,2520
2016-04-24T12:28:11.951Z,2515
2016-04-24T12:29:11.939Z,2540
2016-04-24T12:30:11.957Z,2585
2016-04-24T12:31:11.975Z,2605
2016-04-24T12:32:11.978Z,2520
2016-04-24T12:33:12.028Z,2290
2016-04-24T12:34:11.999Z,2555
2016-04-24T12:35:11.877Z,2600
2016-04-24T12:36:12.005Z,2495
2016-04-24T12:37:12.007Z,2185
2016-04-24T12:38:12.041Z,2295
2016-04-24T12:39:12.013Z,2460
2016-04-24T12:40:12.218Z,2435
2016-04-24T12:41:12.033Z,2460
2016-04-24T12:42:12.036Z,2205
2016-04-24T12:43:12.069Z,2560
2016-04-24T12:44:12.057Z,2655
2016-04-24T12:45:12.091Z,475
2016-04-24T12:46:12.047Z,2515
2016-04-24T12:47:12.081Z,350
2016-04-24T12:48:12.083Z,335
2016-04-24T12:49:12.101Z,365
2016-04-24T12:50:12.089Z,450
2016-04-24T12:51:12.091Z,515
2016-04-24T12:52:12.079Z,435
2016-04-24T12:53:12.082Z,1385
2016-04-24T12:54:12.093Z,1040
2016-04-24T12:55:12.642Z,1585
2016-04-24T12:56:12.098Z,1040
2016-04-24T12:57:12.102Z,445
2016-04-24T12:58:12.088Z,360
2016-04-24T12:59:12.091Z,330
2016-04-24T13:00:12.093Z,295
2016-04-24T13:01:12.080Z,260
2016-04-24T13:02:12.099Z,220
2016-04-24T13:03:12.071Z,200
2016-04-24T13:04:12.088Z,185
2016-04-24T13:05:12.076Z,170
2016-04-24T13:06:12.078Z,170
2016-04-24T13:07:12.081Z,165
2016-04-24T13:08:12.052Z,160
2016-04-24T13:09:12.054Z,160
2016-04-24T13:10:12.121Z,160
2016-04-24T13:11:12.045Z,170
2016-04-24T13:12:12.063Z,180
2016-04-24T13:13:12.050Z,190
2016-04-24T13:14:12.037Z,195
2016-04-24T13:15:12.024Z,200
2016-04-24T13:16:12.011Z,210
2016-04-24T13:17:12.014Z,220
2016-04-24T13:18:12.017Z,235
2016-04-24T13:19:12.003Z,260
2016-04-24T13:20:11.991Z,310
2016-04-24T13:21:12.009Z,545
2016-04-24T13:22:11.981Z,390
2016-04-24T13:23:11.983Z,2340
2016-04-24T13:24:11.986Z,2260
2016-04-24T13:25:11.958Z,2350
2016-04-24T13:26:12.976Z,2425
2016-04-24T13:27:11.947Z,2455
2016-04-24T13:28:11.950Z,415
2016-04-24T13:29:11.938Z,425
2016-04-24T13:30:11.924Z,2340
2016-04-24T13:31:11.911Z,460
2016-04-24T13:32:11.961Z,860
2016-04-24T13:33:11.916Z,2460
2016-04-24T13:34:11.918Z,2275
2016-04-24T13:35:11.906Z,1980
2016-04-24T13:36:11.893Z,530
2016-04-24T13:37:11.912Z,645
2016-04-24T13:38:11.898Z,555
2016-04-24T13:39:11.885Z,720
2016-04-24T13:40:11.982Z,545
2016-04-24T13:41:11.376Z,325
2016-04-24T13:42:11.862Z,265
2016-04-24T13:43:11.865Z,215
2016-04-24T13:44:11.883Z,195
2016-04-24T13:45:11.840Z,180
2016-04-24T13:46:11.842Z,165
2016-04-24T13:47:11.845Z,150
2016-04-24T13:48:11.831Z,135
2016-04-24T13:49:11.850Z,125
2016-04-24T13:50:11.822Z,115
2016-04-24T13:51:11.809Z,115
2016-04-24T13:52:11.811Z,110
2016-04-24T13:53:11.798Z,110
2016-04-24T13:54:11.801Z,115
2016-04-24T13:55:12.366Z,110
2016-04-24T13:56:11.869Z,105
2016-04-24T13:57:11.856Z,105
2016-04-24T13:58:11.796Z,105
2016-04-24T13:59:11.799Z,105
2016-04-24T14:00:11.802Z,105
2016-04-24T14:01:11.757Z,115
2016-04-24T14:02:11.744Z,115
2016-04-24T14:03:11.732Z,135
2016-04-24T14:04:11.718Z,155
2016-04-24T14:05:11.705Z,145
2016-04-24T14:06:11.692Z,145
2016-04-24T14:07:11.695Z,155
2016-04-24T14:08:11.682Z,175
2016-04-24T14:09:11.670Z,180
2016-04-24T14:10:12.266Z,200
2016-04-24T14:11:12.081Z,235
2016-04-24T14:12:11.643Z,305
2016-04-24T14:13:11.693Z,300